^^
Saratoga-Weather Station Historical Data
Daily Summary for May 25, 2020 Units:  English    Metric   Both
Daily Weekly Monthly Yearly Custom
  High: Low: Average:
Temperature: 70.9 °F 47.7 °F 60.1 °F
Dew Point: 54.5 °F 46 °F 50.5 °F
Humidity: 95% 49% 73%
Wind Speed: 8.1mph 0mph 1.2mph
Wind Gust: 13mph - -
Wind- - SSW
Pressure: 30.5 in 30.5 in -
Precipitation: 0 in    
Historical Graphs
 
 
Tabular Data for May 25, 2020
Time Temperature Dew Point Pressure Wind Wind Speed Wind Gust Humidity Rainfall Rate (Hourly) solar
00:02 53.1 °F 49.6 °F 30.5 in Calm   1 mph 88% 0 in 0 W/m2
00:07 52.9 °F 49.5 °F 30.5 in Calm     88% 0 in 0 W/m2
00:12 52.5 °F 49.5 °F 30.5 in Calm   1 mph 89% 0 in 0 W/m2
00:17 52.3 °F 49.3 °F 30.5 in Calm     89% 0 in 0 W/m2
00:22 52.2 °F 49.3 °F 30.5 in Calm     90% 0 in 0 W/m2
00:27 52.2 °F 49.3 °F 30.5 in Calm     90% 0 in 0 W/m2
00:33 52 °F 49.1 °F 30.5 in Calm     90% 0 in 0 W/m2
00:38 51.6 °F 49.1 °F 30.5 in Calm     91% 0 in 0 W/m2
00:43 51.4 °F 48.9 °F 30.5 in Calm     91% 0 in 0 W/m2
00:48 51.4 °F 48.9 °F 30.5 in Calm     91% 0 in 0 W/m2
00:53 51.3 °F 48.7 °F 30.5 in Calm     91% 0 in 0 W/m2
00:58 51.1 °F 48.6 °F 30.5 in Calm     91% 0 in 0 W/m2
01:03 50.7 °F 48.2 °F 30.5 in Calm     91% 0 in 0 W/m2
01:08 50.7 °F 48.6 °F 30.5 in Calm     92% 0 in 0 W/m2
01:13 50.5 °F 48.4 °F 30.5 in Calm     92% 0 in 0 W/m2
01:18 50.4 °F 48.2 °F 30.5 in Calm     92% 0 in 0 W/m2
01:23 50.4 °F 48.2 °F 30.5 in Calm     92% 0 in 0 W/m2
01:28 50.4 °F 48.2 °F 30.5 in Calm     92% 0 in 0 W/m2
01:33 50.2 °F 48.2 °F 30.5 in Calm     93% 0 in 0 W/m2
01:38 50.2 °F 48.2 °F 30.5 in Calm     93% 0 in 0 W/m2
01:43 50.2 °F 48.2 °F 30.5 in Calm     93% 0 in 0 W/m2
01:48 50 °F 48 °F 30.5 in Calm     93% 0 in 0 W/m2
01:53 50 °F 48 °F 30.5 in Calm     93% 0 in 0 W/m2
01:59 50 °F 48 °F 30.5 in Calm     93% 0 in 0 W/m2
02:04 49.8 °F 47.8 °F 30.5 in Calm     93% 0 in 0 W/m2
02:09 49.8 °F 47.8 °F 30.5 in Calm     93% 0 in 0 W/m2
02:14 49.8 °F 48.2 °F 30.5 in Calm     94% 0 in 0 W/m2
02:19 49.8 °F 48.2 °F 30.5 in South 0.9 mph 1 mph 94% 0 in 0 W/m2
02:24 49.8 °F 48.2 °F 30.5 in Calm     94% 0 in 0 W/m2
02:29 49.8 °F 48.2 °F 30.5 in South 0.9 mph 1 mph 94% 0 in 0 W/m2
02:34 49.8 °F 48.2 °F 30.5 in Calm   1 mph 94% 0 in 0 W/m2
02:39 50.2 °F 48.6 °F 30.5 in NW 2 mph 2 mph 94% 0 in 0 W/m2
02:44 50.4 °F 48.7 °F 30.5 in NW 0.9 mph 2 mph 94% 0 in 0 W/m2
02:49 50.5 °F 48.9 °F 30.5 in West 0.9 mph 2 mph 94% 0 in 0 W/m2
02:54 50.9 °F 49.3 °F 30.5 in West 0.9 mph 2 mph 94% 0 in 0 W/m2
02:59 51.4 °F 49.8 °F 30.5 in West 0.9 mph 2 mph 94% 0 in 0 W/m2
03:04 51.4 °F 49.5 °F 30.5 in West 2 mph 3 mph 93% 0 in 0 W/m2
03:09 51.4 °F 49.3 °F 30.5 in West 2 mph 2 mph 92% 0 in 0 W/m2
03:14 51.4 °F 49.3 °F 30.5 in West 2 mph 2 mph 92% 0 in 0 W/m2
03:19 51.3 °F 49.1 °F 30.5 in West 0.9 mph 1 mph 92% 0 in 0 W/m2
03:24 51.1 °F 48.9 °F 30.5 in West 0.9 mph 1 mph 92% 0 in 0 W/m2
03:29 50.7 °F 48.6 °F 30.5 in Calm   2 mph 92% 0 in 0 W/m2
03:34 50.5 °F 48.4 °F 30.5 in Calm     92% 0 in 0 W/m2
03:39 50.5 °F 48.4 °F 30.5 in Calm     92% 0 in 0 W/m2
03:44 50.4 °F 48.2 °F 30.5 in Calm     92% 0 in 0 W/m2
03:49 50.2 °F 48 °F 30.5 in Calm     92% 0 in 0 W/m2
03:54 50.2 °F 48 °F 30.5 in Calm     92% 0 in 0 W/m2
03:59 49.8 °F 47.8 °F 30.5 in Calm     93% 0 in 0 W/m2
04:04 49.6 °F 47.5 °F 30.5 in Calm     92% 0 in 0 W/m2
04:09 49.6 °F 47.7 °F 30.5 in Calm     93% 0 in 0 W/m2
04:14 49.6 °F 47.7 °F 30.5 in Calm     93% 0 in 0 W/m2
04:19 49.5 °F 47.5 °F 30.5 in Calm     93% 0 in 0 W/m2
04:24 49.5 °F 47.5 °F 30.5 in Calm     93% 0 in 0 W/m2
04:29 49.5 °F 47.5 °F 30.5 in Calm   1 mph 93% 0 in 0 W/m2
04:35 49.3 °F 47.3 °F 30.5 in Calm     93% 0 in 0 W/m2
04:40 49.3 °F 47.7 °F 30.5 in Calm     94% 0 in 0 W/m2
04:45 49.3 °F 47.7 °F 30.5 in Calm     94% 0 in 0 W/m2
04:50 49.1 °F 47.5 °F 30.5 in Calm     94% 0 in 0 W/m2
04:55 48.9 °F 47.3 °F 30.5 in Calm     94% 0 in 0 W/m2
05:00 48.9 °F 46.9 °F 30.5 in Calm     93% 0 in 0 W/m2
05:05 48.7 °F 46.8 °F 30.5 in Calm     93% 0 in 0 W/m2
05:10 48.6 °F 46.9 °F 30.5 in Calm     94% 0 in 0 W/m2
05:15 48.6 °F 46.9 °F 30.5 in Calm     94% 0 in 0 W/m2
05:20 48.4 °F 46.8 °F 30.5 in Calm     94% 0 in 0 W/m2
05:25 48.2 °F 46.6 °F 30.5 in Calm     94% 0 in 0 W/m2
05:30 48 °F 46.4 °F 30.5 in Calm     94% 0 in 0 W/m2
05:35 48 °F 46.4 °F 30.5 in Calm   1 mph 94% 0 in 0 W/m2
05:40 47.8 °F 46.2 °F 30.5 in Calm     94% 0 in 0 W/m2
05:45 47.8 °F 46.2 °F 30.5 in Calm   1 mph 94% 0 in 5 W/m2
05:50 47.7 °F 46 °F 30.5 in Calm     94% 0 in 7 W/m2
05:55 47.7 °F 46 °F 30.5 in Calm     94% 0 in 11 W/m2
06:00 47.7 °F 46 °F 30.5 in Calm     94% 0 in 12 W/m2
06:05 47.7 °F 46 °F 30.5 in Calm     94% 0 in 12 W/m2
06:10 47.7 °F 46.2 °F 30.5 in Calm     95% 0 in 12 W/m2
06:15 47.7 °F 46.2 °F 30.5 in Calm     95% 0 in 14 W/m2
06:20 47.8 °F 46.4 °F 30.5 in Calm     95% 0 in 16 W/m2
06:25 47.8 °F 46.4 °F 30.5 in Calm     95% 0 in 19 W/m2
06:30 47.8 °F 46.4 °F 30.5 in Calm     95% 0 in 25 W/m2
06:35 48 °F 46.6 °F 30.5 in Calm   2 mph 95% 0 in 26 W/m2
06:40 48.2 °F 46.8 °F 30.5 in West 0.9 mph 1 mph 95% 0 in 32 W/m2
06:45 48.4 °F 46.9 °F 30.5 in Calm     95% 0 in 32 W/m2
06:50 48.6 °F 47.1 °F 30.5 in Calm     95% 0 in 32 W/m2
06:55 48.7 °F 47.3 °F 30.5 in Calm     95% 0 in 35 W/m2
07:00 48.7 °F 47.3 °F 30.5 in Calm   1 mph 95% 0 in 30 W/m2
07:05 49.1 °F 47.7 °F 30.5 in Calm     95% 0 in 32 W/m2
07:10 49.3 °F 47.8 °F 30.5 in Calm     95% 0 in 44 W/m2
07:15 49.5 °F 48 °F 30.5 in Calm     95% 0 in 53 W/m2
07:20 49.6 °F 48.2 °F 30.5 in Calm     95% 0 in 69 W/m2
07:25 49.8 °F 48.4 °F 30.5 in Calm     95% 0 in 84 W/m2
07:30 50.4 °F 48.9 °F 30.5 in Calm     95% 0 in 86 W/m2
07:35 50.7 °F 49.3 °F 30.5 in Calm     95% 0 in 86 W/m2
07:40 51.3 °F 49.8 °F 30.5 in Calm     95% 0 in 113 W/m2
07:45 52 °F 50.5 °F 30.5 in Calm     95% 0 in 223 W/m2
07:50 52.9 °F 51.4 °F 30.5 in Calm     95% 0 in 241 W/m2
07:55 54.1 °F 52.2 °F 30.5 in NW 0.9 mph 3 mph 93% 0 in 258 W/m2
08:00 55.4 °F 52.9 °F 30.5 in NW 2.9 mph 3 mph 91% 0 in 276 W/m2
08:05 56.1 °F 52.7 °F 30.5 in West 2 mph 2 mph 88% 0 in 292 W/m2
08:10 56.8 °F 52.7 °F 30.5 in West 4 mph 6 mph 86% 0 in 288 W/m2
08:15 57.4 °F 52.5 °F 30.5 in WNW 2.9 mph 4 mph 84% 0 in 295 W/m2
08:20 57.7 °F 52.3 °F 30.5 in NNW 2 mph 6 mph 82% 0 in 308 W/m2
08:25 58.3 °F 52.5 °F 30.5 in Calm   3 mph 81% 0 in 327 W/m2
08:30 58.6 °F 52.2 °F 30.5 in WNW 0.9 mph 3 mph 79% 0 in 334 W/m2
08:35 58.8 °F 52.3 °F 30.5 in WNW 2 mph 2 mph 79% 0 in 325 W/m2
08:40 59 °F 52.5 °F 30.5 in WNW 2 mph 3 mph 79% 0 in 302 W/m2
08:45 59.2 °F 52.7 °F 30.5 in West 0.9 mph 4 mph 79% 0 in 380 W/m2
08:50 59.4 °F 52.5 °F 30.5 in WNW 0.9 mph 3 mph 78% 0 in 394 W/m2
08:55 59.5 °F 52.7 °F 30.5 in Calm   3 mph 78% 0 in 392 W/m2
09:00 59.7 °F 52.9 °F 30.5 in NW 2.9 mph 5 mph 78% 0 in 432 W/m2
09:05 60.1 °F 53.2 °F 30.5 in WNW 0.9 mph 9 mph 78% 0 in 448 W/m2
09:10 60.4 °F 52.9 °F 30.5 in NE 4 mph 6 mph 76% 0 in 466 W/m2
09:15 61 °F 52.7 °F 30.5 in WNW 2 mph 9 mph 74% 0 in 471 W/m2
09:20 61.3 °F 53.4 °F 30.5 in West 0.9 mph 1 mph 75% 0 in 508 W/m2
09:25 62.1 °F 53.6 °F 30.5 in NNE 2 mph 3 mph 74% 0 in 513 W/m2
09:31 62.6 °F 54.1 °F 30.5 in East 4 mph 6 mph 74% 0 in 589 W/m2
09:36 63.1 °F 54 °F 30.5 in Calm   3 mph 72% 0 in 589 W/m2
09:41 63.7 °F 54.5 °F 30.5 in ENE 2 mph 4 mph 72% 0 in 585 W/m2
09:46 63.9 °F 54 °F 30.5 in Calm   3 mph 70% 0 in 621 W/m2
09:51 64 °F 54.1 °F 30.5 in East 4 mph 6 mph 70% 0 in 582 W/m2
09:56 64 °F 53.6 °F 30.5 in East 2.9 mph 6 mph 69% 0 in 125 W/m2
10:01 64.2 °F 53.8 °F 30.5 in West 4 mph 8 mph 69% 0 in 188 W/m2
10:06 63.9 °F 53.1 °F 30.5 in West 2 mph 10 mph 68% 0 in 188 W/m2
10:11 63.3 °F 52.2 °F 30.5 in North 2.9 mph 6 mph 67% 0 in 153 W/m2
10:16 63.1 °F 52.9 °F 30.5 in WNW 4 mph 6 mph 69% 0 in 295 W/m2
10:21 62.8 °F 52 °F 30.5 in WNW 4 mph 10 mph 68% 0 in 176 W/m2
10:26 62.2 °F 52 °F 30.5 in NNW 4.9 mph 5 mph 69% 0 in 686 W/m2
10:31 62.1 °F 52.2 °F 30.5 in NNW 0.9 mph 10 mph 70% 0 in 176 W/m2
10:36 62.1 °F 52.5 °F 30.5 in ENE 2 mph 3 mph 71% 0 in 190 W/m2
10:41 61.9 °F 52.3 °F 30.5 in NE 2 mph 5 mph 71% 0 in 262 W/m2
10:46 62.1 °F 52.5 °F 30.5 in SW 2 mph 2 mph 71% 0 in 188 W/m2
10:51 62.6 °F 52.7 °F 30.5 in West 4 mph 7 mph 70% 0 in 773 W/m2
10:56 63.3 °F 52.5 °F 30.5 in South 0.9 mph 6 mph 68% 0 in 886 W/m2
11:01 63.9 °F 52.7 °F 30.5 in NW 2 mph 7 mph 67% 0 in 877 W/m2
11:06 64.2 °F 52.7 °F 30.5 in WNW 4 mph 10 mph 66% 0 in 819 W/m2
11:11 64.6 °F 52.9 °F 30.5 in WNW 6 mph 6 mph 66% 0 in 752 W/m2
11:16 64.8 °F 52.3 °F 30.5 in West 8.1 mph 8 mph 64% 0 in 791 W/m2
11:21 64.8 °F 51.8 °F 30.5 in ESE 2 mph 4 mph 63% 0 in 860 W/m2
11:26 64.9 °F 51.6 °F 30.5 in NW 4 mph 6 mph 62% 0 in 735 W/m2
11:32 64.9 °F 52 °F 30.5 in West 2.9 mph 6 mph 63% 0 in 807 W/m2
11:37 65.7 °F 52.3 °F 30.5 in ENE 4.9 mph 5 mph 62% 0 in 858 W/m2
11:42 66 °F 52.7 °F 30.5 in ESE 2.9 mph 11 mph 62% 0 in 896 W/m2
11:47 66.2 °F 52.9 °F 30.5 in SE 2.9 mph 4 mph 62% 0 in 928 W/m2
11:52 66 °F 52.2 °F 30.5 in ENE 2 mph 11 mph 61% 0 in 928 W/m2
11:57 65.7 °F 52.3 °F 30.5 in ENE 2 mph 5 mph 62% 0 in 207 W/m2
12:02 65.3 °F 52.3 °F 30.5 in NW 0.9 mph 9 mph 63% 0 in 983 W/m2
12:07 65.8 °F 52 °F 30.5 in West 0.9 mph 3 mph 61% 0 in 339 W/m2
12:12 66 °F 52.7 °F 30.5 in NNW 2.9 mph 5 mph 62% 0 in 258 W/m2
12:17 65.5 °F 52.5 °F 30.5 in NE 2.9 mph 4 mph 63% 0 in 181 W/m2
12:22 65.8 °F 51.6 °F 30.5 in North 4 mph 4 mph 60% 0 in 1042 W/m2
12:27 65.8 °F 51.6 °F 30.5 in ENE 4 mph 10 mph 60% 0 in 545 W/m2
12:32 66.2 °F 52.3 °F 30.5 in WNW 2 mph 4 mph 61% 0 in 517 W/m2
12:37 66.7 °F 52.3 °F 30.5 in ESE 0.9 mph 10 mph 60% 0 in 388 W/m2
12:42 66.7 °F 52.3 °F 30.5 in NE 2.9 mph 3 mph 60% 0 in 371 W/m2
12:47 66.4 °F 52.2 °F 30.5 in East 4 mph 9 mph 60% 0 in 325 W/m2
12:52 66 °F 52.2 °F 30.5 in ESE 2 mph 11 mph 61% 0 in 260 W/m2
12:57 65.7 °F 51.8 °F 30.5 in East 2 mph 5 mph 61% 0 in 202 W/m2
13:02 65.5 °F 51.6 °F 30.5 in Calm   8 mph 61% 0 in 227 W/m2
13:07 65.5 °F 52.5 °F 30.5 in NE 0.9 mph 2 mph 63% 0 in 301 W/m2
13:12 65.8 °F 52.5 °F 30.5 in ENE 0.9 mph 4 mph 62% 0 in 364 W/m2
13:17 66 °F 52.2 °F 30.5 in ENE 2 mph 5 mph 61% 0 in 269 W/m2
13:22 66 °F 52.2 °F 30.5 in NE 2 mph 4 mph 61% 0 in 218 W/m2
13:27 65.7 °F 52.3 °F 30.5 in NNW 4.9 mph 5 mph 62% 0 in 267 W/m2
13:32 65.7 °F 51.8 °F 30.5 in Calm   6 mph 61% 0 in 320 W/m2
13:37 65.8 °F 52.5 °F 30.5 in WSW 0.9 mph 1 mph 62% 0 in 285 W/m2
13:42 66 °F 52.7 °F 30.5 in WNW 2.9 mph 3 mph 62% 0 in 250 W/m2
13:47 65.8 °F 52.5 °F 30.5 in Calm   3 mph 62% 0 in 183 W/m2
13:52 65.8 °F 52.5 °F 30.5 in Calm   2 mph 62% 0 in 139 W/m2
13:57 65.7 °F 52.7 °F 30.5 in SSE 0.9 mph 1 mph 63% 0 in 151 W/m2
14:02 65.5 °F 52.2 °F 30.5 in North 0.9 mph 3 mph 62% 0 in 239 W/m2
14:07 65.7 °F 52.7 °F 30.5 in NW 0.9 mph 5 mph 63% 0 in 353 W/m2
14:12 65.8 °F 52.5 °F 30.5 in NNE 0.9 mph 2 mph 62% 0 in 420 W/m2
14:17 66.2 °F 52.9 °F 30.5 in Calm   3 mph 62% 0 in 311 W/m2
14:22 66.4 °F 52.9 °F 30.5 in NNE 0.9 mph 4 mph 62% 0 in 239 W/m2
14:27 66.4 °F 52.2 °F 30.5 in Calm   2 mph 60% 0 in 229 W/m2
14:32 66.6 °F 52.7 °F 30.5 in North 0.9 mph 6 mph 61% 0 in 311 W/m2
14:37 66.7 °F 52.3 °F 30.5 in Calm   3 mph 60% 0 in 417 W/m2
14:42 67.1 °F 51.8 °F 30.5 in NW 2 mph 4 mph 58% 0 in 598 W/m2
14:47 67.5 °F 52.2 °F 30.5 in Calm   2 mph 58% 0 in 577 W/m2
14:53 67.8 °F 52.9 °F 30.5 in WSW 2 mph 6 mph 59% 0 in 346 W/m2
14:58 67.5 °F 52.2 °F 30.5 in Calm   2 mph 58% 0 in 390 W/m2
15:03 67.6 °F 51.8 °F 30.5 in ENE 2 mph 4 mph 57% 0 in 622 W/m2
15:08 68.4 °F 52 °F 30.5 in NNW 0.9 mph 6 mph 56% 0 in 427 W/m2
15:13 68.5 °F 52.7 °F 30.5 in ESE 2 mph 2 mph 57% 0 in 469 W/m2
15:18 68.7 °F 50.4 °F 30.5 in West 2.9 mph 3 mph 52% 0 in 348 W/m2
15:23 68.9 °F 50 °F 30.5 in WNW 2 mph 3 mph 51% 0 in 272 W/m2
15:28 68.7 °F 49.8 °F 30.5 in East 2 mph 4 mph 51% 0 in 230 W/m2
15:33 68.4 °F 49.5 °F 30.5 in WNW 2.9 mph 6 mph 51% 0 in 278 W/m2
15:38 67.8 °F 49.1 °F 30.5 in West 2 mph 6 mph 51% 0 in 343 W/m2
15:43 67.6 °F 48.9 °F 30.5 in SSW 0.9 mph 5 mph 51% 0 in 411 W/m2
15:48 68 °F 50.2 °F 30.5 in NW 2.9 mph 4 mph 53% 0 in 388 W/m2
15:53 68.4 °F 49.5 °F 30.5 in South 0.9 mph 5 mph 51% 0 in 364 W/m2
15:58 68.4 °F 48.9 °F 30.5 in ENE 4 mph 4 mph 50% 0 in 297 W/m2
16:03 68.2 °F 49.3 °F 30.5 in NW 0.9 mph 5 mph 51% 0 in 274 W/m2
16:08 68.2 °F 49.8 °F 30.5 in NE 2 mph 2 mph 52% 0 in 287 W/m2
16:13 68.2 °F 49.8 °F 30.5 in NNW 2 mph 5 mph 52% 0 in 246 W/m2
16:18 68.2 °F 50.9 °F 30.5 in East 4 mph 4 mph 54% 0 in 311 W/m2
16:23 68.4 °F 51.1 °F 30.5 in NE 2.9 mph 3 mph 54% 0 in 420 W/m2
16:28 68.7 °F 50.9 °F 30.5 in NW 0.9 mph 3 mph 53% 0 in 482 W/m2
16:33 69.1 °F 50.2 °F 30.5 in NW 4.9 mph 8 mph 51% 0 in 526 W/m2
16:38 68.9 °F 49.5 °F 30.5 in West 6.9 mph 13 mph 50% 0 in 533 W/m2
16:43 69.1 °F 50.7 °F 30.5 in ESE 0.9 mph 3 mph 52% 0 in 796 W/m2
16:48 69.4 °F 50 °F 30.5 in ESE 2.9 mph 13 mph 50% 0 in 373 W/m2
16:53 69.3 °F 50.4 °F 30.5 in SE 2 mph 3 mph 51% 0 in 501 W/m2
16:58 69.3 °F 50.4 °F 30.5 in NNE 2.9 mph 6 mph 51% 0 in 445 W/m2
17:03 69.3 °F 50.9 °F 30.5 in Calm   1 mph 52% 0 in 243 W/m2
17:08 68.9 °F 50.5 °F 30.5 in ENE 2.9 mph 4 mph 52% 0 in 199 W/m2
17:13 68.4 °F 51.1 °F 30.5 in ESE 4 mph 4 mph 54% 0 in 214 W/m2
17:18 68.2 °F 50.9 °F 30.5 in East 2.9 mph 3 mph 54% 0 in 264 W/m2
17:23 67.8 °F 50.5 °F 30.5 in Calm   2 mph 54% 0 in 311 W/m2
17:28 68.2 °F 50.9 °F 30.5 in North 2 mph 2 mph 54% 0 in 392 W/m2
17:33 68.7 °F 51.4 °F 30.5 in ENE 0.9 mph 3 mph 54% 0 in 517 W/m2
17:38 69.4 °F 52.2 °F 30.5 in NW 2 mph 3 mph 54% 0 in 441 W/m2
17:43 69.6 °F 51.8 °F 30.5 in NE 0.9 mph 2 mph 53% 0 in 195 W/m2
17:48 69.4 °F 51.1 °F 30.5 in Calm   4 mph 52% 0 in 113 W/m2
17:53 68.9 °F 51.1 °F 30.5 in WNW 2.9 mph 4 mph 53% 0 in 109 W/m2
17:58 69.1 °F 51.3 °F 30.5 in West 2 mph 4 mph 53% 0 in 107 W/m2
18:03 68.9 °F 51.1 °F 30.5 in NNE 2.9 mph 3 mph 53% 0 in 471 W/m2
18:08 69.4 °F 51.6 °F 30.5 in WSW 2 mph 4 mph 53% 0 in 457 W/m2
18:13 70 °F 52 °F 30.5 in NE 0.9 mph 3 mph 53% 0 in 443 W/m2
18:18 70.2 °F 51.8 °F 30.5 in WSW 2 mph 2 mph 52% 0 in 431 W/m2
18:23 70.3 °F 50.9 °F 30.5 in WNW 0.9 mph 6 mph 50% 0 in 410 W/m2
18:29 70.2 °F 50.7 °F 30.5 in NNW 6 mph 6 mph 50% 0 in 374 W/m2
18:34 70 °F 50.5 °F 30.5 in West 8.1 mph 9 mph 50% 0 in 336 W/m2
18:39 70.2 °F 50.7 °F 30.5 in NE 0.9 mph 3 mph 50% 0 in 306 W/m2
18:44 70.2 °F 50.2 °F 30.5 in ENE 0.9 mph 9 mph 49% 0 in 288 W/m2
18:49 70.3 °F 50.4 °F 30.5 in West 0.9 mph 3 mph 49% 0 in 274 W/m2
18:54 70.5 °F 50.4 °F 30.5 in SE 6.9 mph 8 mph 49% 0 in 69 W/m2
18:59 70 °F 50.5 °F 30.5 in NNW 0.9 mph 3 mph 50% 0 in 267 W/m2
19:04 70 °F 50 °F 30.5 in West 2.9 mph 3 mph 49% 0 in 294 W/m2
19:09 70.2 °F 50.2 °F 30.5 in Calm   3 mph 49% 0 in 292 W/m2
19:14 70.5 °F 50.9 °F 30.5 in NNE 2 mph 4 mph 50% 0 in 313 W/m2
19:19 70.5 °F 50.9 °F 30.5 in NNE 0.9 mph 4 mph 50% 0 in 316 W/m2
19:24 70.5 °F 50.9 °F 30.5 in NE 0.9 mph 6 mph 50% 0 in 274 W/m2
19:29 70.9 °F 51.8 °F 30.5 in NNE 2.9 mph 3 mph 51% 0 in 246 W/m2
19:34 70.7 °F 51.6 °F 30.5 in East 2.9 mph 6 mph 51% 0 in 220 W/m2
19:39 70.3 °F 51.4 °F 30.5 in ESE 2 mph 7 mph 51% 0 in 199 W/m2
19:44 70 °F 51.1 °F 30.5 in ENE 2.9 mph 3 mph 51% 0 in 155 W/m2
19:50 69.6 °F 51.3 °F 30.5 in NNW 0.9 mph 6 mph 52% 0 in 137 W/m2
19:55 69.6 °F 51.3 °F 30.5 in ENE 2 mph 3 mph 52% 0 in 132 W/m2
20:00 69.6 °F 51.8 °F 30.5 in NE 2 mph 3 mph 53% 0 in 132 W/m2
20:05 69.4 °F 51.6 °F 30.5 in NNW 0.9 mph 2 mph 53% 0 in 123 W/m2
20:10 69.4 °F 51.6 °F 30.5 in ENE 2.9 mph 4 mph 53% 0 in 109 W/m2
20:15 69.3 °F 51.4 °F 30.5 in NE 0.9 mph 1 mph 53% 0 in 97 W/m2
20:20 69.3 °F 51.4 °F 30.5 in NW 2 mph 3 mph 53% 0 in 88 W/m2
20:25 68.7 °F 51.4 °F 30.5 in NNW 0.9 mph 5 mph 54% 0 in 83 W/m2
20:30 68.5 °F 51.8 °F 30.5 in WNW 2 mph 2 mph 55% 0 in 76 W/m2
20:35 68.5 °F 51.8 °F 30.5 in SSE 0.9 mph 5 mph 55% 0 in 54 W/m2
20:40 68.2 °F 51.4 °F 30.5 in NNW 0.9 mph 2 mph 55% 0 in 42 W/m2
20:45 68 °F 51.8 °F 30.5 in ENE 2 mph 3 mph 56% 0 in 37 W/m2
20:50 67.6 °F 51.8 °F 30.5 in NNW 0.9 mph 3 mph 57% 0 in 32 W/m2
20:55 67.5 °F 52.2 °F 30.5 in Calm   1 mph 58% 0 in 25 W/m2
21:00 66.9 °F 52.2 °F 30.5 in Calm   2 mph 59% 0 in 19 W/m2
21:05 66.4 °F 51.6 °F 30.5 in North 0.9 mph 1 mph 59% 0 in 16 W/m2
21:10 66 °F 51.3 °F 30.5 in Calm   1 mph 59% 0 in 12 W/m2
21:15 65.8 °F 51.6 °F 30.5 in Calm   1 mph 60% 0 in 9 W/m2
21:20 65.5 °F 51.6 °F 30.5 in East 0.9 mph 1 mph 61% 0 in 7 W/m2
21:25 65.1 °F 52.2 °F 30.5 in East 0.9 mph 1 mph 63% 0 in 5 W/m2
21:30 64.4 °F 52.3 °F 30.5 in East 0.9 mph 1 mph 65% 0 in 0 W/m2
21:35 63.7 °F 52.5 °F 30.5 in Calm   1 mph 67% 0 in 0 W/m2
21:40 63.1 °F 52.3 °F 30.5 in East 0.9 mph 2 mph 68% 0 in 0 W/m2
21:45 62.2 °F 52 °F 30.5 in Calm     69% 0 in 0 W/m2
21:50 61.9 °F 52 °F 30.5 in Calm   2 mph 70% 0 in 0 W/m2
21:55 61.3 °F 51.8 °F 30.5 in Calm   2 mph 71% 0 in 0 W/m2
22:00 60.8 °F 51.8 °F 30.5 in Calm     72% 0 in 0 W/m2
22:05 60.3 °F 52 °F 30.5 in Calm     74% 0 in 0 W/m2
22:10 59.7 °F 51.4 °F 30.5 in Calm   2 mph 74% 0 in 0 W/m2
22:15 59.5 °F 51.6 °F 30.5 in Calm     75% 0 in 0 W/m2
22:20 59.4 °F 51.4 °F 30.5 in Calm   2 mph 75% 0 in 0 W/m2
22:25 59.2 °F 51.6 °F 30.5 in Calm     76% 0 in 0 W/m2
22:30 58.8 °F 51.3 °F 30.5 in Calm   1 mph 76% 0 in 0 W/m2
22:35 58.6 °F 51.4 °F 30.5 in Calm     77% 0 in 0 W/m2
22:40 58.5 °F 51.3 °F 30.5 in Calm     77% 0 in 0 W/m2
22:45 58.3 °F 51.4 °F 30.5 in SSW 0.9 mph 2 mph 78% 0 in 0 W/m2
22:50 58.1 °F 51.3 °F 30.5 in Calm     78% 0 in 0 W/m2
22:55 57.9 °F 51.1 °F 30.5 in SSW 0.9 mph 2 mph 78% 0 in 0 W/m2
23:00 57.6 °F 51.1 °F 30.5 in Calm     79% 0 in 0 W/m2
23:05 57.6 °F 51.1 °F 30.5 in Calm     79% 0 in 0 W/m2
23:10 57.2 °F 50.7 °F 30.5 in Calm     79% 0 in 0 W/m2
23:15 57 °F 50.9 °F 30.5 in Calm     80% 0 in 0 W/m2
23:20 56.8 °F 50.7 °F 30.5 in Calm     80% 0 in 0 W/m2
23:25 56.7 °F 50.5 °F 30.5 in Calm     80% 0 in 0 W/m2
23:30 56.5 °F 50.4 °F 30.5 in Calm     80% 0 in 0 W/m2
23:35 56.3 °F 50.5 °F 30.5 in SSW 0.9 mph 1 mph 81% 0 in 0 W/m2
23:40 55.9 °F 50.2 °F 30.5 in Calm     81% 0 in 0 W/m2
23:45 55.9 °F 50.5 °F 30.5 in Calm   1 mph 82% 0 in 0 W/m2
23:50 55.8 °F 50.4 °F 30.5 in Calm     82% 0 in 0 W/m2
23:55 55.8 °F 50.7 °F 30.5 in Calm     83% 0 in 0 W/m2
Juneau County Weather
Compliments of Weather Underground - 4 mb